Time;durP1;ratioP1;P1;durP2;ratioP2;P2;SDS_P1;SDS_P2;PMS_P1;PMS_P2;Temp;Humidity;BMP_temperature;BMP_pressure;BME280_temperature;BME280_humidity;BME280_pressure;Samples;Min_cycle;Max_cycle;Signal;HPM_P1;HPM_P2
2023/12/09 00:02:54;;;;;;;16.47;8.80;;;;;;;;;;10404324;28;20196;-72
2023/12/09 00:07:54;;;;;;;15.23;7.13;;;;;;;;;;10403951;28;20204;-72
2023/12/09 00:12:55;;;;;;;13.53;8.27;;;;;;;;;;10403672;28;20447;-73
2023/12/09 00:17:55;;;;;;;12.18;6.75;;;;;;;;;;10379588;28;20476;-73
2023/12/09 00:22:55;;;;;;;11.57;7.33;;;;;;;;;;10383267;28;20197;-73
2023/12/09 00:27:55;;;;;;;11.20;7.10;;;;;;;;;;10403202;28;20718;-73
2023/12/09 00:32:56;;;;;;;12.33;6.47;;;;;;;;;;10401767;28;20874;-73
2023/12/09 00:37:56;;;;;;;14.98;7.18;;;;;;;;;;10401827;28;20319;-72
2023/12/09 00:42:56;;;;;;;12.10;6.97;;;;;;;;;;10401685;28;20185;-73
2023/12/09 00:47:56;;;;;;;10.83;6.80;;;;;;;;;;10401451;28;20193;-73
2023/12/09 00:52:56;;;;;;;11.70;6.40;;;;;;;;;;10382861;28;20454;-72
2023/12/09 00:57:57;;;;;;;9.63;5.07;;;;;;;;;;10400910;28;20474;-73
2023/12/09 01:02:57;;;;;;;13.57;6.83;;;;;;;;;;10401425;28;20234;-73
2023/12/09 01:07:57;;;;;;;8.80;5.67;;;;;;;;;;10400846;28;20706;-73
2023/12/09 01:12:57;;;;;;;10.20;6.33;;;;;;;;;;10401680;28;20189;-73
2023/12/09 01:17:58;;;;;;;12.93;5.93;;;;;;;;;;10401402;28;20708;-73
2023/12/09 01:22:58;;;;;;;8.90;4.70;;;;;;;;;;10400557;28;20267;-73
2023/12/09 01:27:58;;;;;;;8.63;4.73;;;;;;;;;;10403008;28;20212;-73
2023/12/09 01:32:59;;;;;;;9.90;4.77;;;;;;;;;;10408554;28;20189;-73
2023/12/09 01:37:59;;;;;;;9.27;5.87;;;;;;;;;;10409492;28;20224;-74
2023/12/09 01:42:59;;;;;;;10.93;4.70;;;;;;;;;;10409031;28;20246;-73
2023/12/09 01:48:01;;;;;;;6.07;3.70;;;;;;;;;;10408644;28;20666;-73
2023/12/09 01:53:01;;;;;;;9.43;4.57;;;;;;;;;;10408232;28;20889;-73
2023/12/09 01:58:01;;;;;;;6.17;3.80;;;;;;;;;;10408326;28;20204;-73
2023/12/09 02:03:02;;;;;;;8.73;4.27;;;;;;;;;;10388636;28;20490;-73
2023/12/09 02:08:03;;;;;;;7.70;4.50;;;;;;;;;;10407171;28;20208;-73
2023/12/09 02:13:11;;;;;;;7.97;3.77;;;;;;;;;;10406958;28;20192;-73
2023/12/09 02:18:12;;;;;;;7.67;3.80;;;;;;;;;;10403670;28;20224;-73
2023/12/09 02:23:12;;;;;;;9.07;3.33;;;;;;;;;;10405612;28;20199;-73
2023/12/09 02:28:20;;;;;;;14.43;4.13;;;;;;;;;;10407749;28;20225;-73
2023/12/09 02:33:21;;;;;;;10.33;3.33;;;;;;;;;;10406336;28;20192;-73
2023/12/09 02:38:23;;;;;;;11.30;3.53;;;;;;;;;;10406616;28;20259;-72
2023/12/09 02:43:23;;;;;;;6.00;3.03;;;;;;;;;;10406671;28;20192;-73
2023/12/09 02:48:23;;;;;;;9.53;3.33;;;;;;;;;;10406106;28;20595;-72
2023/12/09 02:53:24;;;;;;;11.07;4.37;;;;;;;;;;10406807;28;20204;-72
2023/12/09 02:58:24;;;;;;;6.37;2.90;;;;;;;;;;10405647;28;20657;-72
2023/12/09 03:03:24;;;;;;;6.93;3.17;;;;;;;;;;10405919;28;20196;-73
2023/12/09 03:08:24;;;;;;;7.90;3.70;;;;;;;;;;10405972;28;20292;-73
2023/12/09 03:13:26;;;;;;;7.40;3.50;;;;;;;;;;10405009;28;20212;-73
2023/12/09 03:18:26;;;;;;;5.53;3.20;;;;;;;;;;10405531;28;20576;-73
2023/12/09 03:23:27;;;;;;;7.30;4.27;;;;;;;;;;10404197;28;20319;-73
2023/12/09 03:28:27;;;;;;;11.57;3.87;;;;;;;;;;10405296;28;20727;-73
2023/12/09 03:33:27;;;;;;;7.37;3.27;;;;;;;;;;10404572;28;20451;-73
2023/12/09 03:38:27;;;;;;;6.10;3.43;;;;;;;;;;10404234;28;20240;-72
2023/12/09 03:43:28;;;;;;;6.73;2.90;;;;;;;;;;10404102;28;20184;-73
2023/12/09 03:48:28;;;;;;;9.43;4.17;;;;;;;;;;10403216;28;20554;-73
2023/12/09 03:53:29;;;;;;;6.47;3.73;;;;;;;;;;10404113;28;20196;-73
2023/12/09 03:58:29;;;;;;;10.13;3.53;;;;;;;;;;10403242;28;20584;-73
2023/12/09 04:03:29;;;;;;;10.27;3.75;;;;;;;;;;10403676;28;20463;-73
2023/12/09 04:08:29;;;;;;;7.40;3.90;;;;;;;;;;10403778;28;20271;-72
2023/12/09 04:13:30;;;;;;;5.93;3.70;;;;;;;;;;10402956;28;20658;-72
2023/12/09 04:18:30;;;;;;;7.60;3.90;;;;;;;;;;10402705;28;20213;-73
2023/12/09 04:23:30;;;;;;;5.50;3.43;;;;;;;;;;10403170;28;20189;-72
2023/12/09 04:28:30;;;;;;;6.97;3.80;;;;;;;;;;10385843;28;20211;-72
2023/12/09 04:33:30;;;;;;;8.40;3.80;;;;;;;;;;10402361;28;20200;-71
2023/12/09 04:38:31;;;;;;;11.23;4.23;;;;;;;;;;10384852;28;20228;-72
2023/12/09 04:43:31;;;;;;;9.43;4.20;;;;;;;;;;10401939;28;20191;-72
2023/12/09 04:48:31;;;;;;;9.63;4.47;;;;;;;;;;10402849;28;20215;-72
2023/12/09 04:53:32;;;;;;;12.57;4.77;;;;;;;;;;10399729;28;20462;-72
2023/12/09 04:58:33;;;;;;;8.13;3.97;;;;;;;;;;10402179;28;20240;-72
2023/12/09 05:03:33;;;;;;;10.50;4.87;;;;;;;;;;10404352;28;20335;-72
2023/12/09 05:08:33;;;;;;;13.70;4.87;;;;;;;;;;10404912;28;20188;-71
2023/12/09 05:13:33;;;;;;;14.40;5.87;;;;;;;;;;10404802;28;20624;-72
2023/12/09 05:18:34;;;;;;;11.40;4.90;;;;;;;;;;10387110;28;20219;-71
2023/12/09 05:23:34;;;;;;;10.73;5.10;;;;;;;;;;10400660;28;20255;-72
2023/12/09 05:28:35;;;;;;;12.97;6.50;;;;;;;;;;10404122;28;20580;-72
2023/12/09 05:33:35;;;;;;;14.73;5.67;;;;;;;;;;10399464;28;20204;-72
2023/12/09 05:38:36;;;;;;;14.83;5.37;;;;;;;;;;10403805;28;20291;-72
2023/12/09 05:43:36;;;;;;;10.83;4.57;;;;;;;;;;10419428;28;20586;-72
2023/12/09 05:48:37;;;;;;;12.77;6.13;;;;;;;;;;10405232;28;20192;-72
2023/12/09 05:53:37;;;;;;;10.63;5.30;;;;;;;;;;10403916;28;20737;-72
2023/12/09 05:58:38;;;;;;;16.47;6.50;;;;;;;;;;10404782;28;20725;-72
2023/12/09 06:03:38;;;;;;;12.53;6.40;;;;;;;;;;10399640;28;20185;-72
2023/12/09 06:08:41;;;;;;;18.27;8.33;;;;;;;;;;10400170;28;20596;-72
2023/12/09 06:13:42;;;;;;;28.97;12.93;;;;;;;;;;10407475;28;20818;-72
2023/12/09 06:18:42;;;;;;;25.17;13.40;;;;;;;;;;10407016;28;20216;-72
2023/12/09 06:23:42;;;;;;;38.03;19.03;;;;;;;;;;10411676;28;20275;-71
2023/12/09 06:28:43;;;;;;;30.90;12.13;;;;;;;;;;10410361;28;20508;-72
2023/12/09 06:33:43;;;;;;;19.57;11.43;;;;;;;;;;10411010;28;20189;-71
2023/12/09 06:38:43;;;;;;;20.83;7.55;;;;;;;;;;10410324;28;20232;-71
2023/12/09 06:43:43;;;;;;;24.03;7.90;;;;;;;;;;10409891;28;20218;-71
2023/12/09 06:48:45;;;;;;;19.67;7.27;;;;;;;;;;10410123;28;20200;-71
2023/12/09 06:53:45;;;;;;;19.80;7.57;;;;;;;;;;10409487;28;20665;-72
2023/12/09 06:58:45;;;;;;;11.50;5.10;;;;;;;;;;10409695;28;20224;-72
2023/12/09 07:03:45;;;;;;;16.52;6.43;;;;;;;;;;10409469;28;20551;-71
2023/12/09 07:08:46;;;;;;;17.13;4.70;;;;;;;;;;10408738;28;20239;-72
2023/12/09 07:13:46;;;;;;;18.07;8.10;;;;;;;;;;10408344;28;20554;-72
2023/12/09 07:18:47;;;;;;;20.23;6.40;;;;;;;;;;10408048;28;20693;-72
2023/12/09 07:23:47;;;;;;;15.37;6.03;;;;;;;;;;10407233;28;20239;-72
2023/12/09 07:28:47;;;;;;;23.27;5.13;;;;;;;;;;10407693;28;20227;-71
2023/12/09 07:33:48;;;;;;;11.07;4.97;;;;;;;;;;10406597;28;20226;-72
2023/12/09 07:38:48;;;;;;;11.47;5.43;;;;;;;;;;10412095;28;20224;-72
2023/12/09 07:43:48;;;;;;;18.23;5.27;;;;;;;;;;10407250;28;20185;-72
2023/12/09 07:48:48;;;;;;;13.97;4.90;;;;;;;;;;10394583;28;20850;-72
2023/12/09 07:53:49;;;;;;;9.65;4.57;;;;;;;;;;10398027;28;20189;-72
2023/12/09 07:58:49;;;;;;;19.87;7.80;;;;;;;;;;10406654;28;20563;-72
2023/12/09 08:03:49;;;;;;;11.97;4.67;;;;;;;;;;10406255;28;20196;-71
2023/12/09 08:08:50;;;;;;;15.17;5.30;;;;;;;;;;10405835;28;20689;-71
2023/12/09 08:13:51;;;;;;;9.27;3.63;;;;;;;;;;10405536;28;20216;-71
2023/12/09 08:18:51;;;;;;;10.87;3.90;;;;;;;;;;10405813;28;20342;-71
2023/12/09 08:23:52;;;;;;;14.97;4.07;;;;;;;;;;10405487;28;20447;-71
2023/12/09 08:28:52;;;;;;;9.05;3.30;;;;;;;;;;10406116;28;20212;-71
2023/12/09 08:33:52;;;;;;;9.60;2.63;;;;;;;;;;10402670;28;20192;-71
2023/12/09 08:38:52;;;;;;;10.63;3.13;;;;;;;;;;10407305;28;20951;-71
2023/12/09 08:43:53;;;;;;;12.60;3.43;;;;;;;;;;10403718;28;20168;-71
2023/12/09 08:48:53;;;;;;;7.17;2.73;;;;;;;;;;10403270;28;20195;-72
2023/12/09 08:53:53;;;;;;;12.37;3.57;;;;;;;;;;10407099;28;20207;-72
2023/12/09 08:58:54;;;;;;;8.60;2.97;;;;;;;;;;10404029;28;20263;-71
2023/12/09 09:03:54;;;;;;;6.97;2.87;;;;;;;;;;10403995;28;20185;-72
2023/12/09 09:08:54;;;;;;;13.90;3.27;;;;;;;;;;10403999;28;20275;-72
2023/12/09 09:13:54;;;;;;;9.13;3.17;;;;;;;;;;10404016;28;20947;-72
2023/12/09 09:18:55;;;;;;;5.73;2.90;;;;;;;;;;10402003;28;20271;-71
2023/12/09 09:23:55;;;;;;;6.55;3.08;;;;;;;;;;10403766;28;20795;-72
2023/12/09 09:28:56;;;;;;;7.70;3.00;;;;;;;;;;10404245;28;20231;-71
2023/12/09 09:33:56;;;;;;;7.57;2.97;;;;;;;;;;10404064;28;20184;-72
2023/12/09 09:38:56;;;;;;;23.63;15.73;;;;;;;;;;10402362;28;20291;-72
2023/12/09 09:43:58;;;;;;;48.43;22.43;;;;;;;;;;10385807;28;20189;-72
2023/12/09 09:48:59;;;;;;;83.73;39.40;;;;;;;;;;10406678;28;20208;-72
2023/12/09 09:54:10;;;;;;;15.70;8.17;;;;;;;;;;10411004;28;20189;-72
2023/12/09 09:59:10;;;;;;;11.50;6.77;;;;;;;;;;10407092;28;20271;-72
2023/12/09 10:04:11;;;;;;;10.83;7.23;;;;;;;;;;10410953;28;20259;-72
2023/12/09 10:09:11;;;;;;;9.37;2.33;;;;;;;;;;10410612;28;20188;-72
2023/12/09 10:14:11;;;;;;;3.97;2.17;;;;;;;;;;10409203;28;20243;-72
2023/12/09 10:19:16;;;;;;;9.87;2.30;;;;;;;;;;10389051;28;20262;-72
2023/12/09 10:24:17;;;;;;;4.60;2.40;;;;;;;;;;10409680;28;20189;-72
2023/12/09 10:29:17;;;;;;;6.50;2.83;;;;;;;;;;10410137;28;20213;-72
2023/12/09 10:34:18;;;;;;;6.10;2.97;;;;;;;;;;10409968;28;20251;-72
2023/12/09 10:39:19;;;;;;;4.83;2.10;;;;;;;;;;10409211;28;20228;-72
2023/12/09 10:44:20;;;;;;;9.13;3.30;;;;;;;;;;10409428;28;20185;-72
2023/12/09 10:49:20;;;;;;;4.70;2.27;;;;;;;;;;10410112;28;20734;-72
2023/12/09 10:54:21;;;;;;;8.37;2.10;;;;;;;;;;10408127;28;20203;-72
2023/12/09 10:59:21;;;;;;;4.17;1.80;;;;;;;;;;10408393;28;20210;-72
2023/12/09 11:04:21;;;;;;;6.18;2.50;;;;;;;;;;10407846;28;20177;-72
2023/12/09 11:09:22;;;;;;;5.77;2.03;;;;;;;;;;10406998;28;20665;-72
2023/12/09 11:14:28;;;;;;;5.33;2.27;;;;;;;;;;10409595;28;20729;-72
2023/12/09 11:19:28;;;;;;;6.23;2.50;;;;;;;;;;10407026;28;20228;-72
2023/12/09 11:24:30;;;;;;;6.77;2.80;;;;;;;;;;10408788;28;20187;-72
2023/12/09 11:29:30;;;;;;;5.30;2.83;;;;;;;;;;10406462;28;20216;-72
2023/12/09 11:34:32;;;;;;;6.05;2.58;;;;;;;;;;10407552;28;20274;-72
2023/12/09 11:39:33;;;;;;;6.37;2.50;;;;;;;;;;10408341;28;20231;-72
2023/12/09 11:44:34;;;;;;;5.57;2.53;;;;;;;;;;10408223;28;20753;-72
2023/12/09 11:49:38;;;;;;;2.77;2.03;;;;;;;;;;10408845;28;20601;-72
2023/12/09 11:54:39;;;;;;;5.07;2.73;;;;;;;;;;10404046;28;20541;-72
2023/12/09 11:59:39;;;;;;;5.43;2.30;;;;;;;;;;10406768;28;20212;-70
2023/12/09 12:04:39;;;;;;;4.87;2.60;;;;;;;;;;10407384;28;20189;-70
2023/12/09 12:09:39;;;;;;;4.43;2.00;;;;;;;;;;10406454;28;20192;-71
2023/12/09 12:14:40;;;;;;;3.53;2.73;;;;;;;;;;10404445;28;20960;-71
2023/12/09 12:19:40;;;;;;;5.38;3.47;;;;;;;;;;10406638;28;20696;-71
2023/12/09 12:24:41;;;;;;;7.50;2.97;;;;;;;;;;10405846;28;20212;-71
2023/12/09 12:29:42;;;;;;;6.20;2.90;;;;;;;;;;10404837;28;20201;-71
2023/12/09 12:34:43;;;;;;;3.37;2.30;;;;;;;;;;10405882;28;20189;-71
2023/12/09 12:39:43;;;;;;;4.17;2.63;;;;;;;;;;10404884;28;20360;-71
2023/12/09 12:44:44;;;;;;;3.30;2.80;;;;;;;;;;10404837;28;20231;-71
2023/12/09 12:49:44;;;;;;;4.50;3.10;;;;;;;;;;10405559;28;20189;-71
2023/12/09 12:54:45;;;;;;;5.83;3.43;;;;;;;;;;10401108;28;20209;-71
2023/12/09 12:59:45;;;;;;;4.60;3.00;;;;;;;;;;10404835;28;20220;-71
2023/12/09 13:04:45;;;;;;;5.70;3.20;;;;;;;;;;10404338;28;20300;-71
2023/12/09 13:09:46;;;;;;;4.67;3.10;;;;;;;;;;10405159;28;20303;-71
2023/12/09 13:14:46;;;;;;;6.63;5.20;;;;;;;;;;10403932;28;20274;-72
2023/12/09 13:19:46;;;;;;;5.33;3.53;;;;;;;;;;10404453;28;20213;-72
2023/12/09 13:24:46;;;;;;;5.30;3.57;;;;;;;;;;10411092;28;20455;-72
2023/12/09 13:29:47;;;;;;;5.40;3.23;;;;;;;;;;10395508;28;20708;-72
2023/12/09 13:34:47;;;;;;;8.57;5.37;;;;;;;;;;10395091;28;20177;-72
2023/12/09 13:39:47;;;;;;;10.80;6.73;;;;;;;;;;10411778;28;20632;-72
2023/12/09 13:44:47;;;;;;;10.53;5.90;;;;;;;;;;10411872;28;20180;-72
2023/12/09 13:49:48;;;;;;;8.07;5.13;;;;;;;;;;10412969;28;20441;-72
2023/12/09 13:54:49;;;;;;;9.43;4.77;;;;;;;;;;10411038;28;20188;-71
2023/12/09 13:59:49;;;;;;;7.60;4.43;;;;;;;;;;10411867;28;20220;-71
2023/12/09 14:04:49;;;;;;;7.22;3.90;;;;;;;;;;10409032;28;20185;-71
2023/12/09 14:09:50;;;;;;;11.25;2.67;;;;;;;;;;10412042;28;20567;-71
2023/12/09 14:14:50;;;;;;;9.63;3.93;;;;;;;;;;10411214;28;20193;-70
2023/12/09 14:19:50;;;;;;;10.93;6.03;;;;;;;;;;10410567;28;20220;-70
2023/12/09 14:24:50;;;;;;;9.93;5.40;;;;;;;;;;10409180;28;20232;-71
2023/12/09 14:29:50;;;;;;;11.13;5.90;;;;;;;;;;10409664;28;20580;-70
2023/12/09 14:34:51;;;;;;;14.23;9.77;;;;;;;;;;10413394;28;20188;-70
2023/12/09 14:39:51;;;;;;;13.90;6.93;;;;;;;;;;10410174;28;20497;-71
2023/12/09 14:44:51;;;;;;;9.50;4.97;;;;;;;;;;10413916;28;20246;-71
2023/12/09 14:49:52;;;;;;;12.38;5.88;;;;;;;;;;10409924;28;20188;-71
2023/12/09 14:54:53;;;;;;;9.30;4.57;;;;;;;;;;10409402;28;20295;-70
2023/12/09 14:59:53;;;;;;;7.70;4.70;;;;;;;;;;10417011;28;20262;-70
2023/12/09 15:04:53;;;;;;;13.50;8.13;;;;;;;;;;10412866;28;20286;-70
2023/12/09 15:09:53;;;;;;;8.37;5.10;;;;;;;;;;10408619;28;20743;-70
2023/12/09 15:14:56;;;;;;;14.60;7.13;;;;;;;;;;10409563;28;20284;-71
2023/12/09 15:19:56;;;;;;;10.27;5.50;;;;;;;;;;10408991;28;20312;-70
2023/12/09 15:24:56;;;;;;;5.87;4.17;;;;;;;;;;10411843;28;20199;-70
2023/12/09 15:29:57;;;;;;;8.47;3.93;;;;;;;;;;10408135;28;20200;-73
2023/12/09 15:34:58;;;;;;;9.90;6.03;;;;;;;;;;10407008;28;20192;-71
2023/12/09 15:39:58;;;;;;;12.00;5.80;;;;;;;;;;10411228;28;20243;-71
2023/12/09 15:44:59;;;;;;;9.82;5.25;;;;;;;;;;10406490;28;20184;-71
2023/12/09 15:49:59;;;;;;;8.00;4.87;;;;;;;;;;10407821;28;20663;-70
2023/12/09 15:54:59;;;;;;;6.47;3.93;;;;;;;;;;10412432;28;20184;-71
2023/12/09 15:59:59;;;;;;;11.67;7.20;;;;;;;;;;10415341;28;20219;-71
2023/12/09 16:05:00;;;;;;;7.53;4.80;;;;;;;;;;10411072;28;20200;-71
2023/12/09 16:10:00;;;;;;;8.83;4.77;;;;;;;;;;10411580;28;20286;-71
2023/12/09 16:15:00;;;;;;;7.03;4.13;;;;;;;;;;10407424;28;20435;-71
2023/12/09 16:20:02;;;;;;;5.03;3.27;;;;;;;;;;10407213;28;20216;-72
2023/12/09 16:25:03;;;;;;;7.37;4.20;;;;;;;;;;10408856;28;20474;-71
2023/12/09 16:30:04;;;;;;;5.50;3.87;;;;;;;;;;10406521;28;20197;-69
2023/12/09 16:35:05;;;;;;;2.73;2.50;;;;;;;;;;10405853;28;20231;-70
2023/12/09 16:40:07;;;;;;;5.20;3.60;;;;;;;;;;10406753;28;20716;-69
2023/12/09 16:45:10;;;;;;;5.77;3.50;;;;;;;;;;10406081;28;20199;-70
2023/12/09 16:50:11;;;;;;;4.33;3.23;;;;;;;;;;10406468;28;20204;-70
2023/12/09 16:55:11;;;;;;;2.40;2.20;;;;;;;;;;10405870;28;20192;-70
2023/12/09 17:00:11;;;;;;;5.03;2.60;;;;;;;;;;10405862;28;20239;-70
2023/12/09 17:05:11;;;;;;;4.40;2.57;;;;;;;;;;10405107;28;20573;-70
2023/12/09 17:10:12;;;;;;;5.10;3.70;;;;;;;;;;10403805;28;20231;-70
2023/12/09 17:15:16;;;;;;;6.55;3.90;;;;;;;;;;10403978;28;20196;-70
2023/12/09 17:20:16;;;;;;;6.50;4.37;;;;;;;;;;10405417;28;20315;-70
2023/12/09 17:25:17;;;;;;;9.53;5.30;;;;;;;;;;10404445;28;20282;-70
2023/12/09 17:30:17;;;;;;;12.03;7.77;;;;;;;;;;10413202;28;20194;-70
2023/12/09 17:35:17;;;;;;;5.70;4.03;;;;;;;;;;10399530;28;20599;-70
2023/12/09 17:40:17;;;;;;;10.63;6.50;;;;;;;;;;10387129;28;20486;-70
2023/12/09 17:45:18;;;;;;;10.93;6.40;;;;;;;;;;10408150;28;20200;-70
2023/12/09 17:50:18;;;;;;;7.57;4.27;;;;;;;;;;10404692;28;20193;-70
2023/12/09 17:55:19;;;;;;;8.83;6.23;;;;;;;;;;10403826;28;20279;-70
2023/12/09 18:00:19;;;;;;;9.55;6.05;;;;;;;;;;10389709;28;20216;-70
2023/12/09 18:05:22;;;;;;;6.70;4.70;;;;;;;;;;10403851;28;20196;-70
2023/12/09 18:10:23;;;;;;;9.70;5.55;;;;;;;;;;10409738;28;20550;-70
2023/12/09 18:15:23;;;;;;;7.20;4.30;;;;;;;;;;10415252;28;20622;-70
2023/12/09 18:20:23;;;;;;;8.70;5.10;;;;;;;;;;10410982;28;20220;-70
2023/12/09 18:25:31;;;;;;;7.43;4.63;;;;;;;;;;10414258;28;20236;-70
2023/12/09 18:30:32;;;;;;;7.67;4.23;;;;;;;;;;10415229;28;20185;-70
2023/12/09 18:35:32;;;;;;;8.03;4.90;;;;;;;;;;10418324;28;20184;-71
2023/12/09 18:40:32;;;;;;;9.50;5.50;;;;;;;;;;10414594;28;20490;-70
2023/12/09 18:45:33;;;;;;;8.43;4.50;;;;;;;;;;10414609;28;20555;-71
2023/12/09 18:50:33;;;;;;;8.30;5.80;;;;;;;;;;10410625;28;20443;-71
2023/12/09 18:55:33;;;;;;;5.90;4.37;;;;;;;;;;10410362;28;20199;-71
2023/12/09 19:00:35;;;;;;;7.67;4.80;;;;;;;;;;10409644;28;20304;-71
2023/12/09 19:05:36;;;;;;;6.83;4.67;;;;;;;;;;10413715;28;20438;-71
2023/12/09 19:10:36;;;;;;;9.27;5.13;;;;;;;;;;10413901;28;20188;-71
2023/12/09 19:15:36;;;;;;;9.87;6.10;;;;;;;;;;10413818;28;20811;-71
2023/12/09 19:20:36;;;;;;;12.38;7.35;;;;;;;;;;10409309;28;20283;-72
2023/12/09 19:25:37;;;;;;;13.93;8.00;;;;;;;;;;10412691;28;20212;-71
2023/12/09 19:30:37;;;;;;;18.80;11.53;;;;;;;;;;10412539;28;20187;-71
2023/12/09 19:35:37;;;;;;;25.23;14.53;;;;;;;;;;10409326;28;20190;-71
2023/12/09 19:40:37;;;;;;;34.80;21.40;;;;;;;;;;10408511;28;20238;-71
2023/12/09 19:45:37;;;;;;;22.00;14.07;;;;;;;;;;10412639;28;20192;-71
2023/12/09 19:50:41;;;;;;;15.30;8.87;;;;;;;;;;10413308;28;20439;-71
2023/12/09 19:55:42;;;;;;;16.50;9.27;;;;;;;;;;10407762;28;20188;-71
2023/12/09 20:00:42;;;;;;;20.23;12.77;;;;;;;;;;10412462;28;20673;-71
2023/12/09 20:05:42;;;;;;;14.07;9.33;;;;;;;;;;10408161;28;20263;-71
2023/12/09 20:10:44;;;;;;;16.20;9.00;;;;;;;;;;10394088;28;20571;-70
2023/12/09 20:15:44;;;;;;;11.97;7.43;;;;;;;;;;10407893;28;20196;-70
2023/12/09 20:20:48;;;;;;;16.60;10.43;;;;;;;;;;10407765;28;20212;-71
2023/12/09 20:25:48;;;;;;;11.63;6.70;;;;;;;;;;10407279;28;20196;-71
2023/12/09 20:30:49;;;;;;;15.97;10.00;;;;;;;;;;10407210;28;20744;-70
2023/12/09 20:35:49;;;;;;;15.87;10.63;;;;;;;;;;10407361;28;20191;-71
2023/12/09 20:40:50;;;;;;;11.63;7.80;;;;;;;;;;10406124;28;20260;-71
2023/12/09 20:45:50;;;;;;;12.37;8.63;;;;;;;;;;10406697;28;20275;-70
2023/12/09 20:50:50;;;;;;;16.20;9.30;;;;;;;;;;10407082;28;20193;-70
2023/12/09 20:55:51;;;;;;;17.53;11.53;;;;;;;;;;10405751;28;20188;-70
2023/12/09 21:00:51;;;;;;;18.23;11.40;;;;;;;;;;10405848;28;20209;-70
2023/12/09 21:05:51;;;;;;;20.17;12.73;;;;;;;;;;10405376;28;20184;-71
2023/12/09 21:10:51;;;;;;;15.67;10.47;;;;;;;;;;10405615;28;20529;-71
2023/12/09 21:15:52;;;;;;;13.15;8.88;;;;;;;;;;10405561;28;20698;-71
2023/12/09 21:20:52;;;;;;;12.97;8.33;;;;;;;;;;10404946;28;20226;-71
2023/12/09 21:25:52;;;;;;;8.53;5.50;;;;;;;;;;10405328;28;20471;-71
2023/12/09 21:30:52;;;;;;;13.23;9.02;;;;;;;;;;10405528;28;21035;-71
2023/12/09 21:35:53;;;;;;;14.97;8.97;;;;;;;;;;10405114;28;20194;-71
2023/12/09 21:40:53;;;;;;;14.57;9.27;;;;;;;;;;10405357;28;20479;-71
2023/12/09 21:45:53;;;;;;;16.50;9.20;;;;;;;;;;10411117;28;20733;-71
2023/12/09 21:50:53;;;;;;;17.47;10.93;;;;;;;;;;10413275;28;20235;-71
2023/12/09 21:55:55;;;;;;;17.57;11.97;;;;;;;;;;10413074;28;20443;-71
2023/12/09 22:00:56;;;;;;;17.10;10.87;;;;;;;;;;10412896;28;20204;-71
2023/12/09 22:29:54;;;;;;;12.43;7.50;;;;;;;;;;10304507;28;20306;-71
2023/12/09 22:34:54;;;;;;;11.87;7.00;;;;;;;;;;10307952;28;20248;-71
2023/12/09 22:39:54;;;;;;;11.00;6.87;;;;;;;;;;10308033;28;20477;-71
2023/12/09 22:44:55;;;;;;;7.70;5.03;;;;;;;;;;10308194;28;20676;-71
2023/12/09 22:49:55;;;;;;;4.67;3.80;;;;;;;;;;10307385;28;20208;-71
2023/12/09 22:54:55;;;;;;;6.13;4.28;;;;;;;;;;10306817;28;20752;-72
2023/12/09 22:59:56;;;;;;;5.50;4.10;;;;;;;;;;10307939;28;20363;-71
2023/12/09 23:04:57;;;;;;;5.23;3.87;;;;;;;;;;10306902;28;20252;-72
2023/12/09 23:09:57;;;;;;;4.93;3.10;;;;;;;;;;10299845;28;20201;-72
2023/12/09 23:14:57;;;;;;;4.87;3.27;;;;;;;;;;10307287;28;20229;-71
2023/12/09 23:19:57;;;;;;;3.10;2.80;;;;;;;;;;10305283;28;20230;-71
2023/12/09 23:24:57;;;;;;;3.37;2.43;;;;;;;;;;10311590;28;20244;-72
2023/12/09 23:29:58;;;;;;;2.83;2.17;;;;;;;;;;10348347;28;20207;-71
2023/12/09 23:34:58;;;;;;;1.37;1.20;;;;;;;;;;10347087;28;20209;-71
2023/12/09 23:39:58;;;;;;;1.30;1.20;;;;;;;;;;10347197;28;20228;-71
2023/12/09 23:44:58;;;;;;;4.60;2.53;;;;;;;;;;10347523;28;20669;-71
2023/12/09 23:49:59;;;;;;;1.45;1.35;;;;;;;;;;10346971;28;20196;-71
2023/12/09 23:54:59;;;;;;;1.30;1.20;;;;;;;;;;10343785;28;20196;-71
